Time;durP1;ratioP1;P1;durP2;ratioP2;P2;SDS_P1;SDS_P2;PMS_P1;PMS_P2;Temp;Humidity;BMP_temperature;BMP_pressure;BME280_temperature;BME280_humidity;BME280_pressure;Samples;Min_cycle;Max_cycle;Signal;HPM_P1;HPM_P2
2023/06/22 06:42:48;;;;;;;;;9.75;9.75;;;;;-142.59;100.00;56100.38;5560454;22;51140;-80
2023/06/22 06:45:24;;;;;;;;;94.33;77.33;;;;;-142.59;100.00;56100.38;6264851;22;50140;-71
2023/06/22 06:47:50;;;;;;;;;18.25;17.50;;;;;-142.59;100.00;56100.38;6266062;22;49589;-65
2023/06/22 06:50:16;;;;;;;;;30.75;25.00;;;;;-142.59;100.00;56100.38;6260360;22;49705;-65
2023/06/22 06:52:42;;;;;;;;;13.00;12.00;;;;;-142.59;100.00;56100.38;6263867;22;51627;-65
2023/06/22 06:55:11;;;;;;;;;19.25;17.75;;;;;-142.59;100.00;56100.38;6265295;22;49664;-66
2023/06/22 06:57:40;;;;;;;;;21.75;20.00;;;;;-142.59;100.00;56100.38;6263074;22;49825;-65
2023/06/22 07:00:11;;;;;;;;;11.00;5.00;;;;;-142.59;100.00;56100.38;6265561;22;49991;-64
2023/06/22 07:02:37;;;;;;;;;14.50;10.50;;;;;-142.59;100.00;56100.38;6263829;22;49950;-65
2023/06/22 07:05:04;;;;;;;;;30.50;23.50;;;;;-142.59;100.00;56100.38;6265082;22;49981;-63
2023/06/22 07:07:29;;;;;;;;;13.75;4.75;;;;;-142.59;100.00;56100.38;6237630;22;49773;-65
2023/06/22 07:09:55;;;;;;;;;44.25;42.25;;;;;-142.59;100.00;56100.38;6255201;22;50438;-65
2023/06/22 07:12:20;;;;;;;;;20.50;18.25;;;;;-142.59;100.00;56100.38;6264211;22;49961;-65
2023/06/22 07:14:46;;;;;;;;;41.75;36.00;;;;;-142.59;100.00;56100.38;6237540;22;49739;-64
2023/06/22 07:17:11;;;;;;;;;15.50;8.00;;;;;-142.59;100.00;56100.38;6265657;22;49648;-64
2023/06/22 07:19:37;;;;;;;;;30.00;26.50;;;;;-142.59;100.00;56100.38;6265201;22;49887;-65
2023/06/22 07:22:02;;;;;;;;;26.00;23.50;;;;;-142.59;100.00;56100.38;6264359;22;49803;-65
2023/06/22 07:24:27;;;;;;;;;32.00;27.75;;;;;-142.59;100.00;56100.38;6264382;22;50154;-64
2023/06/22 07:26:53;;;;;;;;;34.75;28.75;;;;;-142.59;100.00;56100.38;6263913;22;50097;-63
2023/06/22 07:29:20;;;;;;;;;40.00;26.25;;;;;-142.59;100.00;56100.38;6264644;22;49662;-64
2023/06/22 07:31:46;;;;;;;;;33.00;29.00;;;;;-142.59;100.00;56100.38;6263559;22;49954;-64
2023/06/22 07:34:12;;;;;;;;;6.75;5.75;;;;;-142.59;100.00;56100.38;6264830;22;49570;-64
2023/06/22 07:36:37;;;;;;;;;26.50;22.50;;;;;-142.59;100.00;56100.38;6264109;22;49909;-63
2023/06/22 07:39:03;;;;;;;;;22.50;20.50;;;;;-142.59;100.00;56100.38;6264976;22;49968;-64
2023/06/22 07:41:29;;;;;;;;;24.25;17.25;;;;;-142.59;100.00;56100.38;6263075;22;50573;-63
2023/06/22 07:43:54;;;;;;;;;25.00;14.25;;;;;-142.59;100.00;56100.38;6264601;22;49688;-63
2023/06/22 07:46:20;;;;;;;;;42.75;35.25;;;;;-142.59;100.00;56100.38;6265371;22;49817;-63
2023/06/22 07:48:45;;;;;;;;;26.75;26.25;;;;;-142.59;100.00;56100.38;6264477;22;50003;-64
2023/06/22 07:51:12;;;;;;;;;17.00;16.50;;;;;-142.59;100.00;56100.38;6265142;22;51445;-63
2023/06/22 07:53:40;;;;;;;;;39.50;36.75;;;;;-142.59;100.00;56100.38;6265255;22;49709;-63
2023/06/22 07:56:07;;;;;;;;;40.50;33.50;;;;;-142.59;100.00;56100.38;6265034;22;49958;-63
2023/06/22 07:58:33;;;;;;;;;40.50;37.00;;;;;-142.59;100.00;56100.38;6263869;22;49520;-63
2023/06/22 08:00:58;;;;;;;;;30.00;26.75;;;;;-142.59;100.00;56100.38;6264112;22;50647;-63
2023/06/22 08:03:23;;;;;;;;;36.50;31.50;;;;;-142.59;100.00;56100.38;6264879;22;49645;-63
2023/06/22 08:05:49;;;;;;;;;46.00;40.25;;;;;-142.59;100.00;56100.38;6264315;22;50622;-63
2023/06/22 08:08:15;;;;;;;;;39.00;33.50;;;;;-142.59;100.00;56100.38;6264484;22;49987;-63
2023/06/22 08:10:41;;;;;;;;;41.25;38.00;;;;;-142.59;100.00;56100.38;6260801;22;50583;-64
2023/06/22 08:13:07;;;;;;;;;32.25;29.00;;;;;-142.59;100.00;56100.38;6261585;22;50015;-63
2023/06/22 08:15:32;;;;;;;;;34.00;29.75;;;;;-142.59;100.00;56100.38;6262798;22;49823;-62
2023/06/22 08:17:58;;;;;;;;;36.50;30.25;;;;;-142.59;100.00;56100.38;6263978;22;49988;-62
2023/06/22 08:20:24;;;;;;;;;35.00;29.75;;;;;-142.59;100.00;56100.38;6263844;22;50867;-62
2023/06/22 08:22:49;;;;;;;;;37.25;34.75;;;;;-142.59;100.00;56100.38;6264640;22;49818;-63
2023/06/22 08:25:15;;;;;;;;;38.00;27.00;;;;;-142.59;100.00;56100.38;6263024;22;49981;-72
2023/06/22 08:27:40;;;;;;;;;38.75;37.50;;;;;-142.59;100.00;56100.38;6264442;22;49516;-65
2023/06/22 08:30:07;;;;;;;;;39.00;33.50;;;;;-142.59;100.00;56100.38;6263529;22;63602;-66
2023/06/22 08:32:35;;;;;;;;;41.75;37.00;;;;;-142.59;100.00;56100.38;6263820;22;49970;-66
2023/06/22 08:35:00;;;;;;;;;56.00;38.25;;;;;-142.59;100.00;56100.38;6264412;22;49766;-66
2023/06/22 08:37:30;;;;;;;;;38.00;33.75;;;;;-142.59;100.00;56100.38;6263182;22;49594;-64
2023/06/22 08:40:00;;;;;;;;;33.50;27.75;;;;;-142.59;100.00;56100.38;6263854;22;50316;-68
2023/06/22 08:42:26;;;;;;;;;33.25;29.00;;;;;-142.59;100.00;56100.38;6263772;22;49787;-67
2023/06/22 08:44:51;;;;;;;;;30.00;20.00;;;;;-142.59;100.00;56100.38;6264757;22;49741;-67
